Time;durP1;ratioP1;P1;durP2;ratioP2;P2;SDS_P1;SDS_P2;PMS_P1;PMS_P2;Temp;Humidity;BMP_temperature;BMP_pressure;BME280_temperature;BME280_humidity;BME280_pressure;Samples;Min_cycle;Max_cycle;Signal;HPM_P1;HPM_P2
2021/11/25 00:00:47;;;;;;;1.70;1.60;;;2.20;98.20;;;;;;4888763;29;20473;-76
2021/11/25 00:03:14;;;;;;;1.77;1.67;;;2.20;98.20;;;;;;4871771;29;20471;-76
2021/11/25 00:05:41;;;;;;;2.67;2.47;;;2.20;98.20;;;;;;4888945;29;20472;-75
2021/11/25 00:08:07;;;;;;;1.67;1.57;;;2.30;98.20;;;;;;4895099;29;20508;-76
2021/11/25 00:10:36;;;;;;;1.70;1.60;;;2.30;98.20;;;;;;4895007;29;20473;-76
2021/11/25 00:13:05;;;;;;;1.70;1.60;;;2.30;98.20;;;;;;4894239;29;20493;-75
2021/11/25 00:15:31;;;;;;;1.73;1.63;;;2.40;98.20;;;;;;4894905;29;20470;-75
2021/11/25 00:17:58;;;;;;;1.70;1.50;;;2.40;98.20;;;;;;4894592;29;20496;-75
2021/11/25 00:20:25;;;;;;;1.70;1.60;;;2.40;98.20;;;;;;4894866;29;20745;-75
2021/11/25 00:22:52;;;;;;;1.70;1.60;;;2.40;98.20;;;;;;4894588;29;20465;-76
2021/11/25 00:25:19;;;;;;;4.93;4.63;;;2.50;98.20;;;;;;4883640;29;20467;-75
2021/11/25 00:27:46;;;;;;;1.70;1.60;;;2.50;98.20;;;;;;4890527;29;20495;-75
2021/11/25 00:30:14;;;;;;;1.70;1.50;;;2.50;98.20;;;;;;4894601;29;20811;-75
2021/11/25 00:32:42;;;;;;;1.67;1.50;;;2.60;98.20;;;;;;4887922;29;20487;-75
2021/11/25 00:35:10;;;;;;;1.70;1.60;;;2.60;98.20;;;;;;4878118;29;20470;-75
2021/11/25 00:37:38;;;;;;;1.70;1.60;;;2.70;98.20;;;;;;4894535;29;20494;-75
2021/11/25 00:40:06;;;;;;;1.63;1.50;;;2.70;98.20;;;;;;4887010;29;20493;-75
2021/11/25 00:42:33;;;;;;;1.80;1.70;;;2.70;98.20;;;;;;4894487;29;20484;-75
2021/11/25 00:45:00;;;;;;;1.70;1.50;;;2.70;98.20;;;;;;4894196;29;20631;-76
2021/11/25 00:47:28;;;;;;;1.70;1.60;;;2.80;98.20;;;;;;4893717;29;20493;-75
2021/11/25 00:49:55;;;;;;;1.70;1.60;;;2.80;98.20;;;;;;4894052;29;20470;-75
2021/11/25 00:52:21;;;;;;;1.70;1.60;;;2.90;98.20;;;;;;4894383;29;20983;-75
2021/11/25 00:54:48;;;;;;;2.90;2.70;;;2.90;98.20;;;;;;4879298;29;20467;-76
2021/11/25 00:57:15;;;;;;;1.70;1.60;;;2.90;98.20;;;;;;4891690;29;20492;-75
2021/11/25 00:59:42;;;;;;;1.80;1.70;;;2.90;98.20;;;;;;4893948;29;20584;-76
2021/11/25 01:02:08;;;;;;;1.70;1.50;;;2.90;98.20;;;;;;4888159;29;20466;-76
2021/11/25 01:04:37;;;;;;;1.63;1.50;;;3.00;98.20;;;;;;4877117;29;20473;-75
2021/11/25 01:07:04;;;;;;;1.73;1.63;;;3.00;98.20;;;;;;4893643;29;20859;-75
2021/11/25 01:09:31;;;;;;;1.67;1.50;;;3.00;98.20;;;;;;4893668;29;20478;-75
2021/11/25 01:12:01;;;;;;;1.70;1.50;;;3.00;98.20;;;;;;4894116;29;20966;-75
2021/11/25 01:14:28;;;;;;;1.70;1.57;;;3.10;98.20;;;;;;4892754;29;20497;-75
2021/11/25 01:16:55;;;;;;;1.63;1.50;;;3.10;98.20;;;;;;4894176;29;20489;-75
2021/11/25 01:19:21;;;;;;;1.70;1.60;;;3.10;98.20;;;;;;4894251;29;20470;-75
2021/11/25 01:21:50;;;;;;;1.67;1.50;;;3.10;98.20;;;;;;4892504;29;20465;-75
2021/11/25 01:24:17;;;;;;;1.70;1.53;;;3.10;98.20;;;;;;4892032;29;20472;-75
2021/11/25 01:26:44;;;;;;;1.70;1.50;;;3.10;98.20;;;;;;4884967;29;20489;-76
2021/11/25 01:29:11;;;;;;;1.70;1.60;;;3.10;98.20;;;;;;4891629;29;20465;-75
2021/11/25 01:31:38;;;;;;;1.67;1.50;;;3.10;98.20;;;;;;4888615;29;20466;-74
2021/11/25 01:34:05;;;;;;;1.70;1.60;;;3.10;98.20;;;;;;4884344;29;20494;-76
2021/11/25 01:36:32;;;;;;;1.70;1.60;;;3.10;98.20;;;;;;4886140;29;20465;-76
2021/11/25 01:39:00;;;;;;;1.70;1.50;;;3.20;98.20;;;;;;4893667;29;20492;-75
2021/11/25 01:41:27;;;;;;;1.67;1.50;;;3.20;98.20;;;;;;4894010;29;20476;-76
2021/11/25 01:43:54;;;;;;;1.70;1.57;;;3.30;98.20;;;;;;4893382;29;20787;-75
2021/11/25 01:46:21;;;;;;;1.70;1.50;;;3.30;98.20;;;;;;4893500;29;20477;-75
2021/11/25 01:48:50;;;;;;;1.63;1.50;;;3.30;98.20;;;;;;4893063;29;20657;-76
2021/11/25 01:51:19;;;;;;;3.70;3.50;;;3.40;98.20;;;;;;4889526;29;20934;-76
2021/11/25 01:53:46;;;;;;;1.70;1.50;;;3.40;98.20;;;;;;4887767;29;20485;-76
2021/11/25 01:56:15;;;;;;;1.70;1.50;;;3.40;98.20;;;;;;4887047;29;20466;-76
2021/11/25 01:58:42;;;;;;;1.67;1.50;;;3.40;98.20;;;;;;4890162;29;20846;-75
2021/11/25 02:01:13;;;;;;;1.70;1.50;;;3.50;98.20;;;;;;4893237;29;20472;-76
2021/11/25 02:03:41;;;;;;;1.70;1.60;;;3.50;98.20;;;;;;4871978;29;20499;-77
2021/11/25 02:06:08;;;;;;;1.70;1.50;;;3.50;98.20;;;;;;4891071;29;20462;-75
2021/11/25 02:08:36;;;;;;;1.70;1.60;;;3.50;98.20;;;;;;4892988;29;20537;-75
2021/11/25 02:11:03;;;;;;;1.67;1.50;;;3.50;98.20;;;;;;4893595;29;20476;-76
2021/11/25 02:13:31;;;;;;;1.63;1.40;;;3.50;98.20;;;;;;4892966;29;20489;-76
2021/11/25 02:15:59;;;;;;;1.70;1.50;;;3.50;98.20;;;;;;4892898;29;20469;-76
2021/11/25 02:18:26;;;;;;;1.67;1.50;;;3.50;98.20;;;;;;4892978;29;20498;-75
2021/11/25 02:20:57;;;;;;;1.63;1.50;;;3.50;98.20;;;;;;4893575;29;20603;-75
2021/11/25 02:23:24;;;;;;;1.70;1.60;;;3.50;98.20;;;;;;4893316;29;20470;-76
2021/11/25 02:25:52;;;;;;;2.53;2.33;;;3.50;98.20;;;;;;4891759;29;20858;-76
2021/11/25 02:28:20;;;;;;;1.67;1.50;;;3.50;98.20;;;;;;4892790;29;21099;-75
2021/11/25 02:30:47;;;;;;;1.67;1.50;;;3.50;98.20;;;;;;4892654;29;20477;-76
2021/11/25 02:33:15;;;;;;;1.60;1.50;;;3.50;98.20;;;;;;4885220;29;20491;-76
2021/11/25 02:35:43;;;;;;;1.70;1.50;;;3.50;98.20;;;;;;4882004;29;20478;-76
2021/11/25 02:38:12;;;;;;;1.60;1.50;;;3.50;98.20;;;;;;4893342;29;20490;-76
2021/11/25 02:40:41;;;;;;;1.67;1.40;;;3.50;98.20;;;;;;4888824;29;20469;-76
2021/11/25 02:43:10;;;;;;;1.67;1.50;;;3.50;98.20;;;;;;4892761;29;20470;-74
2021/11/25 02:45:46;;;;;;;1.67;1.50;;;3.50;98.20;;;;;;4885578;29;20510;-76
2021/11/25 02:48:13;;;;;;;1.60;1.50;;;3.50;98.20;;;;;;4890807;29;20998;-76
2021/11/25 02:50:40;;;;;;;1.63;1.50;;;3.50;98.20;;;;;;4879297;29;20475;-76
2021/11/25 02:53:08;;;;;;;1.60;1.43;;;3.50;98.20;;;;;;4887345;29;20469;-76
2021/11/25 02:55:38;;;;;;;1.63;1.40;;;3.50;98.20;;;;;;4892935;29;20975;-76
2021/11/25 02:58:05;;;;;;;1.63;1.50;;;3.50;98.20;;;;;;4890097;29;20918;-76
2021/11/25 03:00:36;;;;;;;1.67;1.50;;;3.50;98.20;;;;;;4895692;29;20553;-76
2021/11/25 03:03:06;;;;;;;1.67;1.50;;;3.50;98.20;;;;;;4888800;29;20927;-75
2021/11/25 03:05:33;;;;;;;1.63;1.50;;;3.50;98.20;;;;;;4885385;29;20868;-76
2021/11/25 03:08:02;;;;;;;1.70;1.60;;;3.50;98.20;;;;;;4894158;29;20496;-76
2021/11/25 03:10:29;;;;;;;1.63;1.50;;;3.50;98.20;;;;;;4896176;29;21124;-75
2021/11/25 03:12:58;;;;;;;1.60;1.50;;;3.50;98.20;;;;;;4895676;29;20496;-76
2021/11/25 03:15:30;;;;;;;1.70;1.50;;;3.50;98.20;;;;;;4895020;29;21024;-76
2021/11/25 03:17:57;;;;;;;1.60;1.50;;;3.50;98.20;;;;;;4894715;29;20485;-77
2021/11/25 03:20:24;;;;;;;1.63;1.47;;;3.50;98.20;;;;;;4895366;29;20465;-76
2021/11/25 03:22:51;;;;;;;1.67;1.50;;;3.50;98.20;;;;;;4895881;29;20974;-76
2021/11/25 03:25:18;;;;;;;1.63;1.50;;;3.50;98.20;;;;;;4893271;29;20473;-76
2021/11/25 03:27:45;;;;;;;1.63;1.43;;;3.50;98.20;;;;;;4891406;29;20552;-76
2021/11/25 03:30:13;;;;;;;1.67;1.53;;;3.50;98.20;;;;;;4894460;29;20465;-76
2021/11/25 03:32:40;;;;;;;1.70;1.60;;;3.50;98.20;;;;;;4891267;29;20473;-76
2021/11/25 03:35:08;;;;;;;1.67;1.40;;;3.50;98.20;;;;;;4888763;29;20493;-77
2021/11/25 03:37:35;;;;;;;1.70;1.50;;;3.60;98.20;;;;;;4894774;29;20545;-75
2021/11/25 03:40:03;;;;;;;1.70;1.50;;;3.60;98.20;;;;;;4895582;29;20977;-76
2021/11/25 03:42:30;;;;;;;1.60;1.40;;;3.70;98.20;;;;;;4895377;29;20474;-75
2021/11/25 03:44:56;;;;;;;1.67;1.43;;;3.70;98.20;;;;;;4890330;29;20468;-76
2021/11/25 03:47:25;;;;;;;1.67;1.50;;;3.70;98.20;;;;;;4891268;29;20486;-77
2021/11/25 03:49:51;;;;;;;1.67;1.50;;;3.70;98.20;;;;;;4895267;29;20476;-76
2021/11/25 03:52:18;;;;;;;1.70;1.50;;;3.70;98.20;;;;;;4895242;29;20864;-76
2021/11/25 03:54:45;;;;;;;1.70;1.40;;;3.70;98.20;;;;;;4893493;29;20490;-76
2021/11/25 03:57:12;;;;;;;1.70;1.50;;;3.80;98.20;;;;;;4887945;29;20857;-76
2021/11/25 03:59:38;;;;;;;1.60;1.40;;;3.80;98.20;;;;;;4893298;29;20769;-76
2021/11/25 04:02:05;;;;;;;1.67;1.50;;;3.80;98.20;;;;;;4890607;29;20465;-76
2021/11/25 04:04:34;;;;;;;1.63;1.40;;;3.80;98.20;;;;;;4883302;29;20460;-76
2021/11/25 04:07:01;;;;;;;1.63;1.50;;;3.80;98.20;;;;;;4888120;29;20497;-77
2021/11/25 04:09:27;;;;;;;1.60;1.47;;;3.80;98.20;;;;;;4894691;29;20480;-77
2021/11/25 04:11:54;;;;;;;5.60;5.30;;;3.80;98.20;;;;;;4894774;29;20476;-77
2021/11/25 04:14:21;;;;;;;1.63;1.40;;;3.80;98.20;;;;;;4894120;29;20497;-76
2021/11/25 04:16:47;;;;;;;1.63;1.43;;;3.80;98.20;;;;;;4894590;29;20512;-76
2021/11/25 04:19:14;;;;;;;1.63;1.50;;;3.80;98.20;;;;;;4896042;29;20480;-77
2021/11/25 04:21:42;;;;;;;1.60;1.40;;;3.70;98.20;;;;;;4895135;29;20626;-76
2021/11/25 04:24:09;;;;;;;1.70;1.60;;;3.70;98.20;;;;;;4894675;29;20833;-77
2021/11/25 04:26:36;;;;;;;1.70;1.50;;;3.70;98.20;;;;;;4888535;29;20520;-76
2021/11/25 04:29:04;;;;;;;1.60;1.50;;;3.70;98.20;;;;;;4890198;29;20469;-76
2021/11/25 04:37:08;;;;;;;1.67;1.50;;;3.70;98.20;;;;;;4866554;29;20470;-76
2021/11/25 04:39:35;;;;;;;1.70;1.60;;;3.70;98.20;;;;;;4893778;29;20472;-78
2021/11/25 04:42:02;;;;;;;1.70;1.50;;;3.70;98.20;;;;;;4889781;29;21062;-76
2021/11/25 04:44:29;;;;;;;1.60;1.40;;;3.70;98.20;;;;;;4893577;29;20880;-77
2021/11/25 04:46:56;;;;;;;1.67;1.50;;;3.70;98.20;;;;;;4881452;29;20865;-76
2021/11/25 04:49:23;;;;;;;1.67;1.40;;;3.70;98.20;;;;;;4888858;29;20472;-76
2021/11/25 04:51:49;;;;;;;1.67;1.50;;;3.80;98.20;;;;;;4888286;29;20462;-76
2021/11/25 04:54:18;;;;;;;1.60;1.33;;;3.80;98.20;;;;;;4891144;29;20788;-76
2021/11/25 04:56:44;;;;;;;1.60;1.50;;;3.80;98.20;;;;;;4880719;29;20513;-77
2021/11/25 04:59:11;;;;;;;1.60;1.40;;;3.80;98.20;;;;;;4888555;29;20478;-77
2021/11/25 05:01:38;;;;;;;1.63;1.50;;;3.80;98.20;;;;;;4880479;29;20561;-77
2021/11/25 05:04:05;;;;;;;1.60;1.50;;;3.80;98.20;;;;;;4887218;29;20464;-76
2021/11/25 05:06:35;;;;;;;1.60;1.50;;;3.80;98.20;;;;;;4890809;29;20470;-76
2021/11/25 05:09:02;;;;;;;1.67;1.50;;;3.80;98.20;;;;;;4893498;29;20479;-77
2021/11/25 05:11:30;;;;;;;1.60;1.40;;;3.90;98.20;;;;;;4893496;29;20848;-76
2021/11/25 05:13:57;;;;;;;1.63;1.50;;;3.90;98.20;;;;;;4893049;29;20480;-77
2021/11/25 05:16:24;;;;;;;1.67;1.50;;;3.90;98.20;;;;;;4882200;29;20467;-76
2021/11/25 05:18:50;;;;;;;1.60;1.40;;;3.90;98.20;;;;;;4874834;29;20495;-76
2021/11/25 05:21:17;;;;;;;1.60;1.40;;;3.90;98.20;;;;;;4877168;29;20477;-76
2021/11/25 05:23:44;;;;;;;1.60;1.50;;;3.80;98.20;;;;;;4877399;29;20561;-77
2021/11/25 05:26:11;;;;;;;1.63;1.50;;;3.80;98.20;;;;;;4881010;29;20469;-77
2021/11/25 05:28:39;;;;;;;1.60;1.43;;;3.80;98.20;;;;;;4880495;29;20497;-77
2021/11/25 05:31:06;;;;;;;1.63;1.40;;;3.80;98.20;;;;;;4878776;29;20465;-76
2021/11/25 05:33:34;;;;;;;1.70;1.50;;;3.80;98.20;;;;;;4871404;29;20466;-76
2021/11/25 05:36:00;;;;;;;1.63;1.50;;;3.80;98.20;;;;;;4883790;29;20583;-76
2021/11/25 05:38:27;;;;;;;1.60;1.40;;;3.80;98.20;;;;;;4883539;29;20762;-76
2021/11/25 05:40:54;;;;;;;1.70;1.40;;;3.80;98.20;;;;;;4892753;29;20484;-77
2021/11/25 05:43:21;;;;;;;1.70;1.50;;;3.80;98.20;;;;;;4892340;29;20554;-77
2021/11/25 05:45:51;;;;;;;1.60;1.40;;;3.80;98.20;;;;;;4891554;29;20488;-77
2021/11/25 05:48:18;;;;;;;1.60;1.47;;;3.80;98.20;;;;;;4881550;29;20489;-76
2021/11/25 05:50:45;;;;;;;1.67;1.50;;;3.80;98.20;;;;;;4884410;29;20521;-76
2021/11/25 05:53:17;;;;;;;1.67;1.40;;;3.90;98.20;;;;;;4886488;29;20470;-75
2021/11/25 05:55:44;;;;;;;1.63;1.47;;;3.90;98.20;;;;;;4885705;29;20553;-76
2021/11/25 05:58:11;;;;;;;1.60;1.50;;;3.90;98.20;;;;;;4883818;29;20524;-77
2021/11/25 06:00:38;;;;;;;1.60;1.50;;;3.90;98.20;;;;;;4893369;29;20473;-77
2021/11/25 06:03:06;;;;;;;1.60;1.40;;;3.90;98.20;;;;;;4885149;29;20476;-77
2021/11/25 06:05:33;;;;;;;1.60;1.40;;;3.90;98.20;;;;;;4876063;29;20564;-79
2021/11/25 06:08:02;;;;;;;1.70;1.60;;;3.90;98.20;;;;;;4884408;29;20485;-77
2021/11/25 06:10:29;;;;;;;1.67;1.40;;;3.90;98.20;;;;;;4888875;29;20557;-76
2021/11/25 06:12:56;;;;;;;1.70;1.50;;;3.90;98.20;;;;;;4891334;29;20472;-76
2021/11/25 06:15:23;;;;;;;1.67;1.40;;;3.80;98.20;;;;;;4892673;29;20493;-77
2021/11/25 06:17:50;;;;;;;1.70;1.60;;;3.80;98.20;;;;;;4893020;29;20493;-77
2021/11/25 06:20:21;;;;;;;1.63;1.50;;;3.70;98.20;;;;;;4893439;29;20530;-77
2021/11/25 06:22:49;;;;;;;1.60;1.40;;;3.60;98.20;;;;;;4892674;29;20470;-77
2021/11/25 06:25:17;;;;;;;1.67;1.50;;;3.50;98.20;;;;;;4889040;29;20542;-76
2021/11/25 06:27:44;;;;;;;1.60;1.50;;;3.40;98.20;;;;;;4883698;29;20492;-76
2021/11/25 06:30:13;;;;;;;1.60;1.43;;;3.40;98.20;;;;;;4884418;29;20478;-76
2021/11/25 06:32:41;;;;;;;1.63;1.40;;;3.30;98.20;;;;;;4881114;29;20480;-77
2021/11/25 06:35:10;;;;;;;1.63;1.40;;;3.20;98.20;;;;;;4884891;29;20485;-76
2021/11/25 06:37:38;;;;;;;1.63;1.43;;;3.10;98.20;;;;;;4882103;29;20559;-77
2021/11/25 06:40:06;;;;;;;1.63;1.50;;;3.00;98.20;;;;;;4887953;29;20473;-77
2021/11/25 06:42:33;;;;;;;1.70;1.50;;;3.00;98.20;;;;;;4887032;29;20552;-76
2021/11/25 06:45:00;;;;;;;1.73;1.63;;;2.90;98.20;;;;;;4884792;29;20472;-76
2021/11/25 06:47:27;;;;;;;1.63;1.50;;;2.80;98.20;;;;;;4883566;29;20818;-76
2021/11/25 06:49:54;;;;;;;1.80;1.70;;;2.80;98.20;;;;;;4894955;29;20473;-74
2021/11/25 06:52:20;;;;;;;2.33;2.17;;;2.70;98.20;;;;;;4895345;29;21046;-77
2021/11/25 06:54:49;;;;;;;1.67;1.50;;;2.70;98.20;;;;;;4891635;29;20501;-77
2021/11/25 06:57:15;;;;;;;1.70;1.60;;;2.60;98.20;;;;;;4885402;29;20489;-76
2021/11/25 06:59:42;;;;;;;1.70;1.60;;;2.60;98.20;;;;;;4895193;29;20975;-76
2021/11/25 07:02:09;;;;;;;1.67;1.50;;;2.60;98.20;;;;;;4888886;29;20469;-76
2021/11/25 07:04:36;;;;;;;1.80;1.70;;;2.50;98.20;;;;;;4890863;29;20472;-78
2021/11/25 07:07:03;;;;;;;1.70;1.50;;;2.50;98.20;;;;;;4888240;29;20983;-76
2021/11/25 07:09:30;;;;;;;1.60;1.50;;;2.50;98.20;;;;;;4895528;29;20525;-77
2021/11/25 07:11:58;;;;;;;1.80;1.70;;;2.50;98.20;;;;;;4896644;29;20868;-77
2021/11/25 07:14:25;;;;;;;1.70;1.57;;;2.50;98.20;;;;;;4890329;29;20847;-76
2021/11/25 07:16:52;;;;;;;1.63;1.50;;;2.40;98.20;;;;;;4886676;29;21302;-78
2021/11/25 07:19:18;;;;;;;1.70;1.60;;;2.40;98.20;;;;;;4894976;29;20477;-76
2021/11/25 07:21:45;;;;;;;1.80;1.70;;;2.30;98.20;;;;;;4896232;29;20473;-77
2021/11/25 07:24:12;;;;;;;1.70;1.60;;;2.30;98.20;;;;;;4878327;29;20478;-77
2021/11/25 07:26:39;;;;;;;2.43;2.23;;;2.30;98.20;;;;;;4880888;29;20509;-77
2021/11/25 07:29:07;;;;;;;1.70;1.60;;;2.30;98.20;;;;;;4888975;29;20495;-77
2021/11/25 07:31:34;;;;;;;1.70;1.60;;;2.30;98.20;;;;;;4890721;29;20521;-78
2021/11/25 07:34:01;;;;;;;1.67;1.50;;;2.30;98.20;;;;;;4881176;29;20548;-76
2021/11/25 07:36:28;;;;;;;1.63;1.50;;;2.30;98.20;;;;;;4891063;29;21090;-77
2021/11/25 07:38:55;;;;;;;1.70;1.60;;;2.30;98.20;;;;;;4896125;29;20462;-77
2021/11/25 07:41:22;;;;;;;1.70;1.60;;;2.20;98.20;;;;;;4886234;29;20478;-75
2021/11/25 07:43:49;;;;;;;2.20;2.00;;;2.20;98.20;;;;;;4894635;29;20472;-77
2021/11/25 07:46:17;;;;;;;1.70;1.60;;;2.20;98.20;;;;;;4893628;29;20465;-77
2021/11/25 07:48:44;;;;;;;1.70;1.57;;;2.20;98.20;;;;;;4894507;29;20469;-76
2021/11/25 07:51:10;;;;;;;1.70;1.50;;;2.30;98.20;;;;;;4895457;29;20465;-77
2021/11/25 07:53:37;;;;;;;1.70;1.60;;;2.30;98.20;;;;;;4895342;29;20473;-77
2021/11/25 07:56:05;;;;;;;1.70;1.60;;;2.30;98.20;;;;;;4892673;29;20493;-76
2021/11/25 07:58:32;;;;;;;1.70;1.60;;;2.30;98.20;;;;;;4891705;29;20492;-77
2021/11/25 08:00:58;;;;;;;1.67;1.50;;;2.30;98.20;;;;;;4895223;29;20474;-77
2021/11/25 08:03:27;;;;;;;1.70;1.60;;;2.30;98.20;;;;;;4881282;29;20488;-77
2021/11/25 08:05:54;;;;;;;1.70;1.60;;;2.30;98.20;;;;;;4882019;29;20914;-75
2021/11/25 08:08:21;;;;;;;1.70;1.60;;;2.30;98.20;;;;;;4888128;29;20950;-76
2021/11/25 08:10:49;;;;;;;1.63;1.53;;;2.30;98.20;;;;;;4891891;29;20469;-77
2021/11/25 08:13:16;;;;;;;1.70;1.60;;;2.40;98.20;;;;;;4878031;29;20470;-75
2021/11/25 08:15:42;;;;;;;1.70;1.60;;;2.40;98.20;;;;;;4882161;29;20502;-76
2021/11/25 08:18:09;;;;;;;1.70;1.60;;;2.40;98.20;;;;;;4893916;29;20493;-77
2021/11/25 08:20:38;;;;;;;1.77;1.67;;;2.40;98.20;;;;;;4894161;29;20837;-77
2021/11/25 08:23:04;;;;;;;1.67;1.57;;;2.40;98.20;;;;;;4893863;29;20479;-77
2021/11/25 08:25:31;;;;;;;1.70;1.60;;;2.40;98.20;;;;;;4888472;29;20529;-77
2021/11/25 08:28:00;;;;;;;1.73;1.63;;;2.40;98.20;;;;;;4887399;29;20498;-77
2021/11/25 08:30:29;;;;;;;1.70;1.60;;;2.40;98.20;;;;;;4890147;29;20501;-78
2021/11/25 08:32:55;;;;;;;1.70;1.50;;;2.40;98.20;;;;;;4883961;29;20471;-78
2021/11/25 08:35:22;;;;;;;1.70;1.50;;;2.40;98.20;;;;;;4883636;29;20496;-76
2021/11/25 08:37:50;;;;;;;1.67;1.50;;;2.40;98.20;;;;;;4892954;29;20504;-77
2021/11/25 08:40:18;;;;;;;1.70;1.60;;;2.40;98.20;;;;;;4893831;29;20462;-77
2021/11/25 08:42:46;;;;;;;1.70;1.60;;;2.40;98.20;;;;;;4872483;29;20470;-77
2021/11/25 08:45:15;;;;;;;1.70;1.60;;;2.40;98.20;;;;;;4884067;29;20983;-77
2021/11/25 08:47:41;;;;;;;1.70;1.50;;;2.50;98.20;;;;;;4874590;29;20851;-76
2021/11/25 08:50:11;;;;;;;1.63;1.50;;;2.50;98.20;;;;;;4878268;29;20473;-77
2021/11/25 08:52:38;;;;;;;1.77;1.67;;;2.50;98.20;;;;;;4871806;29;20474;-75
2021/11/25 08:55:07;;;;;;;1.67;1.50;;;2.50;98.20;;;;;;4881038;29;20501;-77
2021/11/25 08:57:35;;;;;;;1.67;1.53;;;2.50;98.20;;;;;;4876581;29;20500;-77
2021/11/25 09:00:02;;;;;;;1.67;1.57;;;2.60;98.20;;;;;;4885733;29;20478;-77
2021/11/25 09:02:28;;;;;;;1.77;1.67;;;2.60;98.20;;;;;;4883544;29;20856;-76
2021/11/25 09:04:56;;;;;;;1.70;1.60;;;2.60;98.20;;;;;;4881451;29;20936;-75
2021/11/25 09:07:23;;;;;;;1.63;1.50;;;2.60;98.20;;;;;;4879435;29;20568;-77
2021/11/25 09:09:50;;;;;;;1.63;1.50;;;2.70;98.20;;;;;;4883983;29;20601;-77
2021/11/25 09:12:18;;;;;;;1.70;1.60;;;2.70;98.20;;;;;;4887698;29;20473;-77
2021/11/25 09:14:45;;;;;;;1.67;1.50;;;2.80;98.20;;;;;;4885692;29;20481;-76
2021/11/25 09:17:13;;;;;;;1.90;1.80;;;2.90;98.20;;;;;;4885764;29;20505;-77
2021/11/25 09:19:39;;;;;;;1.70;1.60;;;3.00;98.20;;;;;;4875803;29;21087;-77
2021/11/25 09:22:06;;;;;;;1.70;1.60;;;3.10;98.20;;;;;;4884235;29;20471;-77
2021/11/25 09:24:33;;;;;;;1.63;1.50;;;3.30;98.20;;;;;;4880944;29;20474;-77
2021/11/25 09:27:03;;;;;;;1.60;1.50;;;3.50;98.20;;;;;;4883241;29;20521;-77
2021/11/25 09:29:31;;;;;;;1.70;1.50;;;3.70;98.20;;;;;;4887986;29;20474;-78
2021/11/25 09:31:58;;;;;;;1.63;1.50;;;3.80;98.20;;;;;;4878269;29;20546;-77
2021/11/25 09:34:28;;;;;;;1.70;1.50;;;3.90;98.20;;;;;;4882421;29;20475;-77
2021/11/25 09:36:55;;;;;;;1.70;1.53;;;4.00;98.20;;;;;;4882518;29;20510;-77
2021/11/25 09:39:25;;;;;;;1.67;1.50;;;4.10;98.20;;;;;;4884520;29;20477;-77
2021/11/25 09:41:52;;;;;;;1.60;1.40;;;4.10;98.20;;;;;;4885223;29;20482;-76
2021/11/25 09:44:19;;;;;;;1.60;1.50;;;4.20;98.20;;;;;;4879944;29;20862;-78
2021/11/25 09:46:50;;;;;;;1.67;1.40;;;4.20;98.20;;;;;;4886309;29;20491;-77
2021/11/25 09:49:16;;;;;;;1.70;1.57;;;4.30;98.20;;;;;;4886374;29;20560;-77
2021/11/25 09:51:43;;;;;;;2.17;2.00;;;4.40;98.20;;;;;;4886184;29;20982;-77
2021/11/25 09:54:10;;;;;;;1.67;1.50;;;4.40;98.20;;;;;;4878490;29;20474;-77
2021/11/25 09:56:37;;;;;;;1.67;1.47;;;4.50;98.20;;;;;;4881200;29;21040;-76
2021/11/25 09:59:04;;;;;;;1.60;1.50;;;4.50;98.20;;;;;;4881283;29;20473;-77
2021/11/25 10:01:33;;;;;;;1.70;1.60;;;4.60;98.20;;;;;;4886570;29;20481;-78
2021/11/25 10:04:02;;;;;;;2.80;2.60;;;4.60;98.20;;;;;;4888872;29;20907;-76
2021/11/25 10:06:33;;;;;;;1.70;1.60;;;4.60;98.20;;;;;;4892971;29;20476;-78
2021/11/25 10:09:01;;;;;;;1.70;1.60;;;4.60;98.20;;;;;;4896152;29;20886;-82
2021/11/25 10:11:32;;;;;;;1.67;1.40;;;4.70;98.20;;;;;;4897157;29;20469;-79
2021/11/25 10:14:03;;;;;;;1.70;1.50;;;4.70;98.20;;;;;;4892897;29;20475;-76
2021/11/25 10:16:32;;;;;;;1.60;1.40;;;4.80;98.20;;;;;;4880451;29;20993;-77
2021/11/25 10:19:10;;;;;;;1.70;1.50;;;4.90;98.20;;;;;;4887246;29;20500;-77
2021/11/25 10:21:41;;;;;;;1.60;1.33;;;4.90;98.20;;;;;;4890884;29;20568;-75
2021/11/25 10:24:09;;;;;;;1.67;1.40;;;5.00;98.20;;;;;;4883640;29;20716;-78
2021/11/25 10:26:36;;;;;;;1.63;1.30;;;5.00;98.20;;;;;;4883981;29;20476;-78
2021/11/25 10:29:07;;;;;;;1.80;1.70;;;5.00;98.20;;;;;;4888901;29;20469;-76
2021/11/25 10:31:37;;;;;;;1.60;1.30;;;5.10;98.20;;;;;;4886492;29;20478;-77
2021/11/25 10:34:09;;;;;;;1.80;1.70;;;5.10;98.20;;;;;;4884074;29;20867;-76
2021/11/25 10:36:53;;;;;;;1.70;1.43;;;5.10;98.20;;;;;;4885420;29;20500;-75
2021/11/25 10:42:09;;;;;;;1.70;1.50;;;5.10;98.20;;;;;;4880263;29;20937;-77
2021/11/25 10:44:37;;;;;;;1.70;1.60;;;5.10;98.20;;;;;;4883040;29;20473;-76
2021/11/25 10:47:07;;;;;;;1.60;1.30;;;5.10;98.20;;;;;;4885198;29;20489;-77
2021/11/25 10:49:39;;;;;;;1.70;1.60;;;5.10;98.20;;;;;;4889355;29;20480;-77
2021/11/25 10:52:16;;;;;;;11.23;10.07;;;5.10;98.20;;;;;;4879890;29;20470;-77
2021/11/25 10:54:45;;;;;;;1.60;1.40;;;5.10;98.20;;;;;;4884341;29;20466;-77
2021/11/25 10:57:12;;;;;;;1.70;1.50;;;5.20;98.20;;;;;;4887496;29;20520;-76
2021/11/25 10:59:42;;;;;;;1.70;1.50;;;5.20;98.20;;;;;;4882864;29;20469;-77
2021/11/25 11:02:27;;;;;;;1.70;1.40;;;5.20;98.20;;;;;;4881118;29;20881;-74
2021/11/25 11:04:55;;;;;;;1.70;1.40;;;5.20;98.20;;;;;;4875002;29;20816;-77
2021/11/25 11:07:24;;;;;;;1.60;1.40;;;5.20;98.20;;;;;;4883738;29;20491;-76
2021/11/25 11:09:52;;;;;;;1.67;1.40;;;5.20;98.20;;;;;;4886423;29;20971;-77
2021/11/25 11:12:24;;;;;;;1.67;1.40;;;5.20;98.20;;;;;;4888178;29;20473;-77
2021/11/25 11:14:55;;;;;;;1.60;1.30;;;5.20;98.20;;;;;;4882521;29;20526;-77
2021/11/25 11:17:30;;;;;;;1.70;1.40;;;5.20;98.20;;;;;;4888745;29;20647;-77
2021/11/25 11:20:15;;;;;;;1.70;1.50;;;5.20;98.20;;;;;;4887209;29;20552;-78
2021/11/25 11:22:51;;;;;;;1.63;1.30;;;5.30;98.20;;;;;;4891662;29;21094;-78
2021/11/25 11:25:20;;;;;;;1.60;1.40;;;5.30;98.20;;;;;;4893343;29;20469;-77
2021/11/25 11:27:49;;;;;;;1.60;1.40;;;5.40;98.20;;;;;;4883298;29;20493;-77
2021/11/25 11:30:16;;;;;;;1.63;1.40;;;5.40;98.20;;;;;;4893700;29;20552;-78
2021/11/25 11:32:43;;;;;;;1.70;1.50;;;5.50;98.20;;;;;;4886787;29;20471;-78
2021/11/25 11:35:13;;;;;;;1.60;1.40;;;5.60;98.20;;;;;;4883008;29;20469;-77
2021/11/25 11:37:41;;;;;;;1.60;1.40;;;5.60;98.20;;;;;;4891384;29;20524;-78
2021/11/25 11:40:09;;;;;;;1.63;1.37;;;5.60;98.20;;;;;;4890631;29;20498;-78
2021/11/25 11:42:37;;;;;;;1.63;1.30;;;5.60;98.20;;;;;;4890703;29;20478;-78
2021/11/25 11:45:04;;;;;;;2.40;2.20;;;5.70;98.20;;;;;;4893022;29;20476;-77
2021/11/25 11:47:32;;;;;;;1.60;1.30;;;5.60;98.20;;;;;;4888515;29;20492;-77
2021/11/25 11:50:02;;;;;;;1.60;1.30;;;5.60;98.20;;;;;;4891943;29;20823;-77
2021/11/25 11:52:30;;;;;;;1.63;1.30;;;5.60;98.20;;;;;;4886080;29;20845;-76
2021/11/25 11:54:59;;;;;;;1.60;1.40;;;5.70;98.20;;;;;;4886683;29;20544;-78
2021/11/25 11:57:44;;;;;;;1.63;1.40;;;5.70;98.20;;;;;;4897564;29;20494;-80
2021/11/25 12:00:34;;;;;;;1.60;1.30;;;5.70;98.20;;;;;;4893507;29;20473;-79
2021/11/25 12:03:00;;;;;;;1.60;1.33;;;5.70;98.20;;;;;;4884790;29;20474;-78
2021/11/25 12:05:50;;;;;;;1.60;1.30;;;5.70;98.20;;;;;;4884367;29;20466;-77
2021/11/25 12:08:40;;;;;;;1.60;1.30;;;5.80;98.20;;;;;;4897511;29;20874;-80
2021/11/25 12:11:09;;;;;;;1.60;1.30;;;5.80;98.20;;;;;;4889300;29;20557;-76
2021/11/25 12:13:57;;;;;;;1.60;1.30;;;5.90;98.20;;;;;;4887624;29;20817;-76
2021/11/25 12:16:29;;;;;;;1.60;1.30;;;6.00;98.20;;;;;;4883578;29;20501;-77
2021/11/25 12:19:00;;;;;;;1.60;1.30;;;6.10;98.20;;;;;;4880775;29;20971;-76
2021/11/25 12:21:36;;;;;;;1.60;1.30;;;6.20;98.20;;;;;;4877302;29;20566;-77
2021/11/25 12:24:21;;;;;;;1.67;1.30;;;6.30;98.20;;;;;;4872557;29;20473;-76
2021/11/25 12:27:12;;;;;;;1.60;1.30;;;6.40;98.20;;;;;;4872509;29;20974;-77
2021/11/25 12:29:44;;;;;;;1.63;1.30;;;6.40;98.20;;;;;;4883159;29;20988;-77
2021/11/25 12:32:26;;;;;;;1.63;1.40;;;6.50;98.20;;;;;;4882176;29;20870;-77
2021/11/25 12:34:54;;;;;;;1.67;1.30;;;6.50;98.20;;;;;;4877976;29;20478;-77
2021/11/25 12:38:02;;;;;;;1.63;1.27;;;6.50;98.20;;;;;;4882278;29;20493;-77
2021/11/25 12:40:48;;;;;;;1.60;1.40;;;6.50;98.20;;;;;;4846816;29;20563;-77
2021/11/25 12:43:16;;;;;;;1.63;1.30;;;6.50;98.20;;;;;;4831492;29;20495;-77
2021/11/25 12:45:45;;;;;;;1.60;1.20;;;6.60;98.20;;;;;;4865818;29;20472;-77
2021/11/25 12:48:17;;;;;;;1.60;1.27;;;6.60;98.20;;;;;;4885970;29;20661;-75
2021/11/25 12:50:50;;;;;;;1.63;1.30;;;6.60;98.20;;;;;;4885533;29;20477;-77
2021/11/25 12:53:18;;;;;;;1.60;1.30;;;6.60;98.20;;;;;;4886825;29;20480;-77
2021/11/25 12:55:53;;;;;;;1.60;1.30;;;6.60;98.20;;;;;;4878494;29;20555;-77
2021/11/25 12:58:19;;;;;;;1.60;1.30;;;6.60;98.20;;;;;;4877535;29;20685;-76
2021/11/25 13:00:47;;;;;;;1.60;1.30;;;6.60;98.20;;;;;;4872857;29;20992;-77
2021/11/25 13:03:18;;;;;;;1.60;1.30;;;6.60;98.20;;;;;;4875602;29;20462;-76
2021/11/25 13:05:47;;;;;;;1.60;1.30;;;6.60;98.20;;;;;;4868679;29;20569;-76
2021/11/25 13:08:23;;;;;;;1.60;1.30;;;6.60;98.20;;;;;;4886699;29;20492;-77
2021/11/25 13:10:51;;;;;;;1.70;1.50;;;6.60;98.20;;;;;;4882684;29;20553;-74
2021/11/25 13:13:21;;;;;;;1.60;1.30;;;6.50;98.20;;;;;;4887189;29;20466;-76